Time;durP1;ratioP1;P1;durP2;ratioP2;P2;SDS_P1;SDS_P2;PMS_P1;PMS_P2;Temp;Humidity;BMP_temperature;BMP_pressure;BME280_temperature;BME280_humidity;BME280_pressure;Samples;Min_cycle;Max_cycle;Signal;HPM_P1;HPM_P2
2021/08/29 00:04:26;;;;;;;11.73;3.75;;;;;;;14.60;100.00;102020.34;10459302;28;20531;-65
2021/08/29 00:09:28;;;;;;;10.10;4.05;;;;;;;14.65;100.00;102019.16;10459366;28;20044;-65
2021/08/29 00:14:31;;;;;;;5.07;2.80;;;;;;;14.77;100.00;102012.34;10459013;28;20048;-66
2021/08/29 00:19:33;;;;;;;8.52;3.83;;;;;;;14.78;100.00;102010.59;10458410;28;20504;-65
2021/08/29 00:24:35;;;;;;;12.15;4.47;;;;;;;14.64;100.00;102000.78;10458283;28;20063;-66
2021/08/29 00:29:38;;;;;;;6.72;2.78;;;;;;;14.85;100.00;101998.75;10458753;28;20076;-66
2021/08/29 00:34:40;;;;;;;11.95;3.50;;;;;;;14.69;100.00;101996.09;10458719;28;20045;-65
2021/08/29 00:39:43;;;;;;;6.18;3.13;;;;;;;14.86;100.00;101993.41;10457851;28;20045;-66
2021/08/29 00:44:45;;;;;;;5.68;2.90;;;;;;;14.85;100.00;101986.41;10458639;28;20045;-66
2021/08/29 00:49:47;;;;;;;8.50;3.63;;;;;;;14.84;100.00;101997.03;10457681;28;20056;-67
2021/08/29 00:54:50;;;;;;;8.85;3.28;;;;;;;14.87;100.00;101991.59;10457735;28;20056;-66
2021/08/29 00:59:53;;;;;;;8.18;3.03;;;;;;;14.84;100.00;101987.38;10457299;28;20051;-66
2021/08/29 01:05:07;;;;;;;9.55;4.78;;;;;;;14.88;100.00;101984.53;10457237;28;20045;-67
2021/08/29 01:10:18;;;;;;;9.68;3.60;;;;;;;14.99;100.00;101982.13;10456963;28;20044;-66
2021/08/29 01:15:41;;;;;;;10.25;3.60;;;;;;;14.81;100.00;101982.25;10456263;28;20547;-66
2021/08/29 01:21:13;;;;;;;7.45;3.22;;;;;;;15.00;100.00;101984.69;10455390;28;20049;-65
2021/08/29 01:26:19;;;;;;;9.35;4.18;;;;;;;14.87;100.00;101983.69;10455810;28;20048;-66
2021/08/29 01:31:23;;;;;;;8.40;3.05;;;;;;;14.99;100.00;101990.03;10455017;28;20497;-66
2021/08/29 01:36:26;;;;;;;8.38;3.20;;;;;;;15.07;100.00;101985.19;10464607;28;20115;-66
2021/08/29 01:41:28;;;;;;;6.78;3.97;;;;;;;15.13;100.00;101983.97;10469277;28;20051;-67
2021/08/29 01:46:32;;;;;;;4.57;2.97;;;;;;;15.27;100.00;101983.19;10468863;28;20489;-67
2021/08/29 01:51:35;;;;;;;12.38;4.40;;;;;;;14.98;100.00;101983.94;10468909;28;20055;-66
2021/08/29 01:57:13;;;;;;;8.95;3.47;;;;;;;14.94;100.00;101971.00;10468705;28;20049;-66
2021/08/29 02:02:17;;;;;;;10.32;4.10;;;;;;;14.91;100.00;101974.69;10458469;28;20057;-69
2021/08/29 02:07:28;;;;;;;8.68;4.22;;;;;;;15.05;100.00;101981.78;10469732;28;20049;-68
2021/08/29 02:12:33;;;;;;;9.07;3.40;;;;;;;15.09;100.00;101980.66;10469745;28;20408;-68
2021/08/29 02:17:35;;;;;;;14.93;4.53;;;;;;;15.00;100.00;101979.41;10468215;28;20056;-68
2021/08/29 02:22:38;;;;;;;7.28;3.72;;;;;;;15.22;100.00;101972.91;10469885;28;20049;-68
2021/08/29 02:27:41;;;;;;;8.55;3.72;;;;;;;14.99;100.00;101971.59;10469526;28;20053;-68
2021/08/29 02:32:44;;;;;;;10.95;4.45;;;;;;;15.07;100.00;101974.63;10469620;28;20048;-69
2021/08/29 02:37:46;;;;;;;8.73;3.80;;;;;;;15.04;100.00;101973.00;10468264;28;20052;-69
2021/08/29 02:42:50;;;;;;;17.10;4.72;;;;;;;15.16;100.00;101970.59;10467901;28;20045;-70
2021/08/29 02:47:53;;;;;;;10.85;3.97;;;;;;;14.99;100.00;101971.59;10463398;28;20060;-69
2021/08/29 02:52:56;;;;;;;13.73;3.80;;;;;;;15.00;100.00;101968.88;10461223;28;20052;-69
2021/08/29 02:58:05;;;;;;;10.90;4.03;;;;;;;15.11;100.00;101980.59;10462032;28;20052;-68
2021/08/29 03:03:07;;;;;;;10.98;3.70;;;;;;;15.10;100.00;101963.06;10460911;28;20053;-68
2021/08/29 03:08:10;;;;;;;10.38;3.85;;;;;;;15.04;100.00;101965.09;10461928;28;20140;-67
2021/08/29 03:13:13;;;;;;;11.88;4.45;;;;;;;15.18;100.00;101959.06;10461729;28;20045;-70
2021/08/29 03:18:16;;;;;;;8.10;5.32;;;;;;;15.16;100.00;101965.34;10461185;28;20056;-68
2021/08/29 03:23:18;;;;;;;16.60;7.20;;;;;;;15.05;100.00;101950.97;10459680;28;20416;-68
2021/08/29 03:28:21;;;;;;;13.05;7.07;;;;;;;15.00;100.00;101957.47;10460819;28;20428;-69
2021/08/29 03:33:24;;;;;;;22.83;9.13;;;;;;;15.08;100.00;101954.38;10461257;28;20041;-67
2021/08/29 03:38:29;;;;;;;18.52;10.32;;;;;;;15.01;100.00;101951.25;10460447;28;20048;-68
2021/08/29 03:43:31;;;;;;;21.15;11.52;;;;;;;14.97;100.00;101941.81;10460008;28;20044;-68
2021/08/29 03:48:34;;;;;;;15.05;9.45;;;;;;;15.04;100.00;101943.16;10459936;28;20052;-67
2021/08/29 03:53:37;;;;;;;13.35;8.13;;;;;;;15.00;100.00;101934.59;10458867;28;20057;-69
2021/08/29 03:58:40;;;;;;;15.43;7.32;;;;;;;14.95;100.00;101933.16;10458065;28;20056;-67
2021/08/29 04:03:42;;;;;;;13.82;7.82;;;;;;;14.89;100.00;101934.34;10459451;28;20052;-69
2021/08/29 04:08:48;;;;;;;10.13;5.70;;;;;;;14.94;100.00;101921.75;10459586;28;20106;-68
2021/08/29 04:13:51;;;;;;;7.20;5.20;;;;;;;14.98;100.00;101922.44;10459418;28;20041;-68
2021/08/29 04:18:54;;;;;;;12.13;4.65;;;;;;;14.93;100.00;101916.56;10459408;28;20052;-68
2021/08/29 04:23:56;;;;;;;7.40;4.53;;;;;;;14.90;100.00;101919.41;10457862;28;20057;-67
2021/08/29 04:28:59;;;;;;;13.27;4.57;;;;;;;14.90;100.00;101922.88;10458290;28;20044;-68
2021/08/29 04:34:07;;;;;;;10.98;3.72;;;;;;;14.99;100.00;101917.06;10458970;28;20052;-69
2021/08/29 04:39:09;;;;;;;10.38;3.88;;;;;;;15.07;100.00;101916.63;10456968;28;20123;-69
2021/08/29 04:44:12;;;;;;;9.68;4.75;;;;;;;14.99;100.00;101916.22;10457856;28;20378;-69
2021/08/29 04:49:14;;;;;;;10.27;4.32;;;;;;;15.20;100.00;101916.75;10457818;28;20052;-67
2021/08/29 04:54:16;;;;;;;9.45;4.18;;;;;;;15.07;100.00;101921.88;10458418;28;20045;-69
2021/08/29 04:59:19;;;;;;;8.05;4.07;;;;;;;15.01;100.00;101912.56;10457439;28;20052;-69
2021/08/29 05:04:21;;;;;;;8.25;3.80;;;;;;;14.94;100.00;101913.00;10457427;28;20051;-69
2021/08/29 05:09:23;;;;;;;11.35;3.40;;;;;;;15.02;100.00;101910.75;10456480;28;20064;-69
2021/08/29 05:14:25;;;;;;;9.52;3.50;;;;;;;15.18;100.00;101911.56;10456718;28;20060;-68
2021/08/29 05:19:28;;;;;;;12.27;3.20;;;;;;;15.49;100.00;101904.44;10457144;28;20051;-68
2021/08/29 05:24:30;;;;;;;11.45;4.60;;;;;;;15.26;100.00;101911.09;10457000;28;20053;-68
2021/08/29 05:29:33;;;;;;;10.07;4.28;;;;;;;15.41;100.00;101917.25;10456599;28;20053;-69
2021/08/29 05:34:35;;;;;;;9.40;4.05;;;;;;;15.56;100.00;101916.31;10456943;28;20045;-67
2021/08/29 05:39:37;;;;;;;9.45;3.65;;;;;;;15.52;100.00;101917.47;10455926;28;20045;-67
2021/08/29 05:44:40;;;;;;;5.93;3.08;;;;;;;15.39;100.00;101916.50;10456498;28;20053;-68
2021/08/29 05:49:42;;;;;;;16.70;5.15;;;;;;;15.59;100.00;101916.13;10455790;28;20049;-69
2021/08/29 05:54:44;;;;;;;12.68;4.18;;;;;;;15.49;100.00;101916.81;10456014;28;20505;-67
2021/08/29 05:59:46;;;;;;;11.82;3.70;;;;;;;15.54;100.00;101909.44;10455788;28;20049;-68
2021/08/29 06:04:49;;;;;;;14.05;4.70;;;;;;;15.56;100.00;101910.19;10456050;28;20041;-67
2021/08/29 06:09:51;;;;;;;11.77;3.78;;;;;;;15.55;100.00;101913.75;10455936;28;20049;-69
2021/08/29 06:14:53;;;;;;;12.43;3.10;;;;;;;15.79;100.00;101908.81;10455870;28;20045;-68
2021/08/29 06:19:56;;;;;;;11.35;3.47;;;;;;;15.56;100.00;101905.75;10456969;28;20052;-67
2021/08/29 06:24:58;;;;;;;18.70;3.65;;;;;;;15.59;100.00;101895.00;10463536;28;20049;-68
2021/08/29 06:30:00;;;;;;;16.90;5.05;;;;;;;15.66;100.00;101892.00;10463030;28;20405;-69
2021/08/29 06:35:03;;;;;;;9.80;4.05;;;;;;;15.84;100.00;101890.91;10462983;28;20379;-66
2021/08/29 06:40:06;;;;;;;11.90;3.00;;;;;;;15.64;100.00;101896.53;10462670;28;20041;-66
2021/08/29 06:45:12;;;;;;;13.07;3.58;;;;;;;15.75;100.00;101891.44;10462567;28;20485;-67
2021/08/29 06:50:14;;;;;;;12.43;3.25;;;;;;;15.70;100.00;101889.09;10462375;28;20398;-68
2021/08/29 06:55:16;;;;;;;11.35;3.53;;;;;;;15.63;100.00;101884.28;10463061;28;20052;-67
2021/08/29 07:00:19;;;;;;;11.25;3.85;;;;;;;15.93;100.00;101882.38;10462097;28;20052;-68
2021/08/29 07:05:21;;;;;;;8.88;3.40;;;;;;;15.89;100.00;101890.63;10461983;28;20132;-68
2021/08/29 07:10:24;;;;;;;8.48;3.45;;;;;;;15.82;100.00;101892.81;10461883;28;20048;-68
2021/08/29 07:15:26;;;;;;;10.52;3.00;;;;;;;15.92;100.00;101878.06;10461345;28;20056;-69
2021/08/29 07:20:28;;;;;;;15.20;3.33;;;;;;;15.92;100.00;101878.06;10461337;28;20052;-68
2021/08/29 07:25:31;;;;;;;10.05;3.47;;;;;;;15.92;100.00;101890.41;10462566;28;20056;-68
2021/08/29 07:30:33;;;;;;;12.38;3.20;;;;;;;16.10;100.00;101893.69;10461519;28;20056;-67
2021/08/29 07:35:35;;;;;;;14.02;3.33;;;;;;;16.26;100.00;101893.59;10459825;28;20048;-68
2021/08/29 07:40:38;;;;;;;15.00;3.65;;;;;;;16.02;100.00;101888.91;10460257;28;20052;-67
2021/08/29 07:45:40;;;;;;;13.35;2.88;;;;;;;16.28;100.00;101876.66;10460222;28;20500;-68
2021/08/29 07:50:43;;;;;;;11.80;4.28;;;;;;;15.92;100.00;101879.84;10460141;28;20072;-69
2021/08/29 07:55:45;;;;;;;9.02;3.25;;;;;;;16.01;100.00;101881.91;10460048;28;20056;-68
2021/08/29 08:00:47;;;;;;;10.50;3.38;;;;;;;16.18;100.00;101883.50;10459558;28;20057;-68
2021/08/29 08:05:50;;;;;;;10.70;3.85;;;;;;;15.98;100.00;101880.31;10460481;28;20061;-68
2021/08/29 08:10:52;;;;;;;13.55;3.20;;;;;;;15.80;100.00;101878.81;10459664;28;20053;-68
2021/08/29 08:15:55;;;;;;;10.90;3.72;;;;;;;16.07;100.00;101878.03;10459097;28;20055;-68
2021/08/29 08:20:57;;;;;;;13.48;4.25;;;;;;;15.90;100.00;101884.38;10459078;28;20539;-66
2021/08/29 08:26:00;;;;;;;9.13;3.78;;;;;;;15.63;100.00;101893.03;10459282;28;20056;-65
2021/08/29 08:31:02;;;;;;;16.00;4.72;;;;;;;15.26;100.00;101894.44;10458296;28;20049;-66
2021/08/29 08:36:05;;;;;;;7.38;2.80;;;;;;;15.48;100.00;101892.19;10458416;28;20045;-64
2021/08/29 08:41:07;;;;;;;10.48;3.03;;;;;;;15.45;100.00;101884.47;10456942;28;20075;-65
2021/08/29 08:46:11;;;;;;;9.32;3.80;;;;;;;15.64;100.00;101888.63;10457327;28;20048;-67
2021/08/29 08:51:13;;;;;;;11.85;4.25;;;;;;;15.35;100.00;101899.16;10456473;28;20052;-65
2021/08/29 08:56:17;;;;;;;11.70;3.03;;;;;;;15.31;100.00;101893.19;10456415;28;20045;-65
2021/08/29 09:01:20;;;;;;;11.50;4.13;;;;;;;15.28;100.00;101889.91;10456222;28;20052;-66
2021/08/29 09:06:23;;;;;;;9.35;3.42;;;;;;;15.43;100.00;101883.69;10457355;28;20045;-64
2021/08/29 09:11:25;;;;;;;5.88;2.70;;;;;;;15.55;100.00;101882.97;10456116;28;20481;-65
2021/08/29 09:16:29;;;;;;;10.07;2.92;;;;;;;15.20;100.00;101875.38;10456957;28;20059;-65
2021/08/29 09:21:34;;;;;;;9.90;2.85;;;;;;;15.49;100.00;101870.13;10456483;28;20083;-65
2021/08/29 09:26:42;;;;;;;7.22;3.20;;;;;;;15.59;100.00;101865.16;10456745;28;20049;-65
2021/08/29 09:31:46;;;;;;;6.38;2.95;;;;;;;15.86;100.00;101856.47;10456241;28;20416;-66
2021/08/29 09:36:51;;;;;;;6.18;3.25;;;;;;;15.32;100.00;101854.50;10456388;28;20053;-66
2021/08/29 09:42:02;;;;;;;5.93;2.92;;;;;;;15.68;100.00;101856.63;10455698;28;20045;-66
2021/08/29 09:47:05;;;;;;;6.88;2.80;;;;;;;15.66;100.00;101855.06;10456374;28;20045;-67
2021/08/29 09:52:09;;;;;;;7.85;3.38;;;;;;;15.38;100.00;101852.31;10456229;28;20408;-65
2021/08/29 09:57:13;;;;;;;8.35;2.90;;;;;;;15.47;100.00;101865.91;10461153;28;20048;-65
2021/08/29 10:02:20;;;;;;;11.35;3.08;;;;;;;15.30;100.00;101854.59;10464252;28;20056;-66
2021/08/29 10:07:23;;;;;;;10.35;4.07;;;;;;;15.56;100.00;101855.59;10464943;28;20118;-66
2021/08/29 10:12:26;;;;;;;10.82;3.50;;;;;;;15.56;100.00;101852.13;10463947;28;20392;-66
2021/08/29 10:17:28;;;;;;;14.07;3.67;;;;;;;15.60;100.00;101850.97;10464084;28;20517;-67
2021/08/29 10:22:30;;;;;;;15.18;3.97;;;;;;;15.40;100.00;101844.31;10463455;28;20060;-67
2021/08/29 10:27:36;;;;;;;11.85;3.72;;;;;;;15.43;100.00;101849.38;10463164;28;20055;-65
2021/08/29 10:32:45;;;;;;;11.68;3.05;;;;;;;15.71;100.00;101842.41;10462156;28;20049;-66
2021/08/29 10:37:48;;;;;;;8.80;3.13;;;;;;;15.42;100.00;101842.44;10462903;28;20049;-65
2021/08/29 10:42:51;;;;;;;7.60;3.33;;;;;;;15.63;100.00;101842.03;10462752;28;20041;-65
2021/08/29 10:47:54;;;;;;;5.00;2.85;;;;;;;15.89;100.00;101837.81;10461512;28;20136;-65
2021/08/29 10:52:56;;;;;;;10.82;3.42;;;;;;;15.61;100.00;101845.59;10462787;28;20041;-67
2021/08/29 10:58:03;;;;;;;6.45;3.20;;;;;;;15.76;100.00;101835.09;10462137;28;20041;-65
2021/08/29 11:03:27;;;;;;;6.78;3.15;;;;;;;15.74;100.00;101834.31;10462870;28;20041;-65
2021/08/29 11:08:31;;;;;;;8.30;3.25;;;;;;;16.05;100.00;101835.03;10460900;28;20049;-65
2021/08/29 11:13:39;;;;;;;7.88;3.33;;;;;;;16.04;100.00;101830.69;10460368;28;20527;-65
2021/08/29 11:19:00;;;;;;;6.55;3.10;;;;;;;15.85;100.00;101817.81;10461151;28;20136;-65
2021/08/29 11:24:03;;;;;;;6.72;3.10;;;;;;;15.80;100.00;101820.72;10461785;28;20136;-66
2021/08/29 11:29:39;;;;;;;7.47;3.15;;;;;;;16.06;100.00;101824.34;10460878;28;20056;-67
2021/08/29 11:35:22;;;;;;;8.73;3.20;;;;;;;15.93;100.00;101834.84;10461148;28;20052;-65
2021/08/29 11:40:24;;;;;;;3.42;2.80;;;;;;;16.13;100.00;101832.75;10456588;28;20405;-66
2021/08/29 11:45:27;;;;;;;4.60;2.33;;;;;;;16.27;100.00;101822.13;10460567;28;20405;-65
2021/08/29 11:50:31;;;;;;;6.85;2.42;;;;;;;16.07;100.00;101825.19;10459132;28;20103;-65
2021/08/29 11:55:35;;;;;;;6.47;3.75;;;;;;;16.29;100.00;101829.94;10460051;28;20053;-66
2021/08/29 12:00:37;;;;;;;4.43;2.47;;;;;;;16.37;100.00;101826.81;10459501;28;20540;-65
2021/08/29 12:05:55;;;;;;;5.97;2.17;;;;;;;16.08;100.00;101819.81;10459827;28;20099;-65
2021/08/29 12:10:58;;;;;;;3.80;2.22;;;;;;;16.21;100.00;101819.88;10458795;28;20057;-65
2021/08/29 12:16:04;;;;;;;3.50;1.55;;;;;;;16.33;100.00;101815.59;10459003;28;20056;-65
2021/08/29 12:21:09;;;;;;;2.63;2.20;;;;;;;16.39;100.00;101817.84;10458634;28;20505;-66
2021/08/29 12:26:11;;;;;;;2.25;1.80;;;;;;;16.61;100.00;101819.03;10459280;28;20053;-64
2021/08/29 12:31:14;;;;;;;4.63;2.38;;;;;;;16.51;100.00;101816.19;10458815;28;20057;-68
2021/08/29 12:36:17;;;;;;;4.43;2.47;;;;;;;16.77;100.00;101822.34;10458353;28;20053;-66
2021/08/29 12:41:19;;;;;;;2.92;2.03;;;;;;;16.81;100.00;101817.69;10458117;28;20045;-65
2021/08/29 12:46:21;;;;;;;2.40;1.70;;;;;;;16.87;100.00;101812.88;10458218;28;20049;-66
2021/08/29 12:51:24;;;;;;;3.53;2.17;;;;;;;16.56;100.00;101806.16;10458891;28;20139;-67
2021/08/29 12:56:26;;;;;;;3.28;2.17;;;;;;;17.05;100.00;101808.13;10457518;28;20512;-66
2021/08/29 13:01:29;;;;;;;3.05;2.78;;;;;;;17.19;100.00;101798.41;10457526;28;20050;-67
2021/08/29 13:06:34;;;;;;;4.32;3.67;;;;;;;16.79;100.00;101820.44;10457129;28;20053;-67
2021/08/29 13:11:45;;;;;;;6.65;3.95;;;;;;;16.93;100.00;101801.06;10456250;28;20131;-66
2021/08/29 13:16:47;;;;;;;7.00;4.72;;;;;;;16.81;100.00;101805.34;10457515;28;20045;-67
2021/08/29 13:21:57;;;;;;;12.38;5.45;;;;;;;16.69;100.00;101804.38;10456799;28;20086;-66
2021/08/29 13:27:13;;;;;;;7.45;4.63;;;;;;;16.82;100.00;101808.81;10457444;28;20049;-66
2021/08/29 13:32:16;;;;;;;10.63;4.35;;;;;;;17.09;100.00;101801.66;10454832;28;20056;-66
2021/08/29 13:37:20;;;;;;;6.50;4.50;;;;;;;17.37;100.00;101790.97;10456260;28;20060;-66
2021/08/29 13:42:23;;;;;;;7.90;5.55;;;;;;;17.27;100.00;101788.13;10456739;28;20052;-66
2021/08/29 13:47:26;;;;;;;10.48;4.68;;;;;;;17.63;100.00;101782.03;10456126;28;20049;-67
2021/08/29 13:52:38;;;;;;;9.25;4.70;;;;;;;18.41;100.00;101773.75;10456680;28;20045;-67
2021/08/29 13:57:46;;;;;;;6.93;4.20;;;;;;;17.94;100.00;101773.69;10456119;28;20543;-66
2021/08/29 14:02:48;;;;;;;6.05;3.72;;;;;;;17.67;100.00;101765.91;10456376;28;20045;-66
2021/08/29 14:07:51;;;;;;;4.47;3.30;;;;;;;17.82;100.00;101770.94;10455725;28;20448;-66
2021/08/29 14:12:53;;;;;;;5.93;2.90;;;;;;;17.59;100.00;101769.13;10455775;28;20386;-66
2021/08/29 14:17:59;;;;;;;2.35;2.15;;;;;;;17.77;100.00;101772.22;10455397;28;20516;-67
2021/08/29 14:23:02;;;;;;;6.03;2.60;;;;;;;17.99;100.00;101775.03;10456090;28;20055;-66
2021/08/29 14:28:04;;;;;;;3.80;2.63;;;;;;;17.96;100.00;101763.81;10455833;28;20056;-67
2021/08/29 14:33:07;;;;;;;5.38;3.17;;;;;;;17.58;100.00;101762.94;10455411;28;20053;-66
2021/08/29 14:38:09;;;;;;;2.35;2.15;;;;;;;17.97;100.00;101758.41;10455157;28;20393;-66
2021/08/29 14:43:12;;;;;;;6.25;2.88;;;;;;;18.00;100.00;101758.19;10459799;28;20057;-67
2021/08/29 14:48:15;;;;;;;7.38;2.47;;;;;;;18.37;100.00;101767.84;10462395;28;20408;-63
2021/08/29 14:53:17;;;;;;;4.95;2.22;;;;;;;18.17;100.00;101766.69;10462448;28;20374;-64
2021/08/29 14:58:19;;;;;;;3.85;2.08;;;;;;;18.02;100.00;101768.66;10462244;28;20055;-63
2021/08/29 15:03:22;;;;;;;3.00;1.88;;;;;;;17.85;100.00;101771.66;10462434;28;20049;-64
2021/08/29 15:08:24;;;;;;;3.40;1.88;;;;;;;17.73;100.00;101765.47;10461739;28;20103;-64
2021/08/29 15:13:27;;;;;;;2.20;1.92;;;;;;;17.52;100.00;101766.06;10461986;28;20045;-63
2021/08/29 15:18:31;;;;;;;2.55;2.20;;;;;;;17.73;100.00;101768.94;10461198;28;20055;-64
2021/08/29 15:23:33;;;;;;;3.13;2.20;;;;;;;17.93;100.00;101772.84;10461502;28;20076;-64
2021/08/29 15:28:36;;;;;;;2.35;2.00;;;;;;;17.58;100.00;101773.53;10461364;28;20055;-64
2021/08/29 15:33:39;;;;;;;2.35;2.00;;;;;;;17.02;100.00;101781.06;10460891;28;20057;-62
2021/08/29 15:38:41;;;;;;;5.22;2.63;;;;;;;17.43;100.00;101782.59;10460559;28;20048;-64
2021/08/29 15:43:44;;;;;;;1.80;1.70;;;;;;;17.89;100.00;101776.69;10460722;28;20052;-64
2021/08/29 15:48:47;;;;;;;2.70;2.28;;;;;;;17.54;100.00;101776.53;10460201;28;20044;-64
2021/08/29 15:53:51;;;;;;;2.58;2.08;;;;;;;17.67;100.00;101773.84;10459481;28;20045;-64
2021/08/29 15:58:54;;;;;;;2.50;2.10;;;;;;;17.89;100.00;101774.03;10459912;28;20064;-63
2021/08/29 16:03:57;;;;;;;4.22;2.90;;;;;;;17.80;100.00;101772.00;10458516;28;20045;-63
2021/08/29 16:08:59;;;;;;;7.32;2.47;;;;;;;17.86;100.00;101773.38;10458104;28;20136;-64
2021/08/29 16:14:02;;;;;;;3.33;2.97;;;;;;;17.41;100.00;101772.09;10458523;28;20047;-63
2021/08/29 16:19:04;;;;;;;3.67;2.95;;;;;;;17.64;100.00;101769.63;10458850;28;20051;-64
2021/08/29 16:24:06;;;;;;;5.80;2.58;;;;;;;17.55;100.00;101768.50;10459249;28;20057;-63
2021/08/29 16:29:09;;;;;;;3.67;2.95;;;;;;;17.42;100.00;101779.09;10458673;28;20049;-63
2021/08/29 16:34:11;;;;;;;7.63;3.88;;;;;;;17.56;100.00;101772.81;10459934;28;20067;-63
2021/08/29 16:39:14;;;;;;;4.80;3.17;;;;;;;17.77;100.00;101780.16;10458394;28;20136;-66
2021/08/29 16:44:16;;;;;;;7.57;3.42;;;;;;;17.61;100.00;101777.78;10456984;28;20397;-64
2021/08/29 16:49:20;;;;;;;5.50;3.53;;;;;;;17.48;100.00;101777.81;10458198;28;20068;-63
2021/08/29 16:54:22;;;;;;;5.18;3.42;;;;;;;17.45;100.00;101776.25;10457730;28;20396;-64
2021/08/29 16:59:25;;;;;;;5.43;3.42;;;;;;;17.59;100.00;101775.25;10457353;28;20588;-64
2021/08/29 17:04:27;;;;;;;3.05;2.78;;;;;;;17.55;100.00;101775.56;10456297;28;20049;-63
2021/08/29 17:09:29;;;;;;;3.50;3.20;;;;;;;17.83;100.00;101785.03;10457013;28;20412;-64
2021/08/29 17:14:32;;;;;;;4.78;2.92;;;;;;;17.80;100.00;101777.28;10457303;28;20056;-63
2021/08/29 17:19:34;;;;;;;5.38;3.67;;;;;;;17.69;100.00;101778.09;10456829;28;20433;-62
2021/08/29 17:24:37;;;;;;;5.75;3.28;;;;;;;17.78;100.00;101780.06;10457253;28;20064;-64
2021/08/29 17:29:43;;;;;;;9.10;4.15;;;;;;;17.48;100.00;101780.44;10456917;28;20056;-63
2021/08/29 17:34:45;;;;;;;5.63;3.65;;;;;;;17.51;100.00;101784.69;10456821;28;20044;-64
2021/08/29 17:39:48;;;;;;;6.03;3.30;;;;;;;17.35;100.00;101787.56;10456184;28;20060;-63
2021/08/29 17:44:50;;;;;;;4.10;3.72;;;;;;;17.41;100.00;101781.84;10456972;28;20056;-64
2021/08/29 17:50:00;;;;;;;5.60;4.47;;;;;;;17.41;100.00;101780.03;10456022;28;20493;-63
2021/08/29 17:55:06;;;;;;;5.20;3.42;;;;;;;17.39;100.00;101795.19;10456349;28;20128;-63
2021/08/29 18:00:09;;;;;;;5.68;4.75;;;;;;;17.38;100.00;101792.66;10456051;28;20048;-63
2021/08/29 18:05:12;;;;;;;9.13;4.13;;;;;;;17.43;100.00;101807.28;10456068;28;20106;-63
2021/08/29 18:10:14;;;;;;;6.65;4.22;;;;;;;17.12;100.00;101810.38;10456539;28;20048;-63
2021/08/29 18:15:17;;;;;;;5.43;3.95;;;;;;;17.24;100.00;101815.63;10456132;28;20041;-64
2021/08/29 18:20:20;;;;;;;7.47;3.90;;;;;;;17.23;100.00;101807.81;10463582;28;20052;-64
2021/08/29 18:25:22;;;;;;;9.35;4.53;;;;;;;17.24;100.00;101807.69;10463730;28;20049;-63
2021/08/29 18:30:24;;;;;;;7.38;4.70;;;;;;;17.17;100.00;101819.66;10463132;28;20052;-63
2021/08/29 18:35:28;;;;;;;6.25;5.15;;;;;;;17.24;100.00;101814.81;10463884;28;20049;-63
2021/08/29 18:40:31;;;;;;;6.70;4.03;;;;;;;17.13;100.00;101825.28;10462746;28;20049;-64
2021/08/29 18:45:33;;;;;;;5.85;4.22;;;;;;;17.20;100.00;101829.22;10463331;28;20045;-64
2021/08/29 18:50:36;;;;;;;8.45;4.45;;;;;;;17.35;100.00;101837.84;10462755;28;20072;-62
2021/08/29 18:55:38;;;;;;;8.55;4.22;;;;;;;17.30;100.00;101830.25;10462471;28;20060;-64
2021/08/29 19:00:41;;;;;;;10.10;4.90;;;;;;;17.20;100.00;101839.78;10462737;28;20049;-62
2021/08/29 19:05:43;;;;;;;5.72;4.38;;;;;;;17.15;100.00;101847.22;10461946;28;20409;-64
2021/08/29 19:10:46;;;;;;;5.70;5.03;;;;;;;17.11;100.00;101861.56;10460796;28;20049;-63
2021/08/29 19:15:49;;;;;;;6.85;5.40;;;;;;;17.05;100.00;101858.41;10460860;28;20084;-63
2021/08/29 19:20:51;;;;;;;8.50;5.60;;;;;;;16.96;100.00;101866.09;10460498;28;20127;-63
2021/08/29 19:25:54;;;;;;;11.63;6.20;;;;;;;16.96;100.00;101866.09;10461665;28;20063;-64
2021/08/29 19:30:57;;;;;;;9.50;6.75;;;;;;;17.05;100.00;101873.44;10460165;28;20401;-63
2021/08/29 19:35:59;;;;;;;11.95;6.47;;;;;;;16.91;100.00;101874.34;10460729;28;20059;-65
2021/08/29 19:41:02;;;;;;;11.23;6.40;;;;;;;17.01;100.00;101877.22;10460553;28;20045;-63
2021/08/29 19:46:05;;;;;;;7.65;6.18;;;;;;;16.84;100.00;101878.34;10460558;28;20049;-64
2021/08/29 19:51:07;;;;;;;7.03;5.47;;;;;;;16.88;100.00;101875.41;10460613;28;20049;-62
2021/08/29 19:56:10;;;;;;;13.68;8.05;;;;;;;16.87;100.00;101872.88;10460030;28;20049;-65
2021/08/29 20:01:12;;;;;;;10.20;5.65;;;;;;;16.81;100.00;101878.53;10459760;28;20401;-63
2021/08/29 20:06:15;;;;;;;8.10;6.82;;;;;;;16.67;100.00;101884.75;10459734;28;20051;-65
2021/08/29 20:11:18;;;;;;;13.23;8.15;;;;;;;16.32;100.00;101877.31;10459635;28;20053;-64
2021/08/29 20:16:26;;;;;;;12.50;8.00;;;;;;;16.25;100.00;101876.00;10459342;28;20049;-64
2021/08/29 20:21:28;;;;;;;18.02;8.93;;;;;;;16.24;100.00;101883.09;10459206;28;20049;-63
2021/08/29 20:26:31;;;;;;;18.17;8.48;;;;;;;16.45;100.00;101896.72;10459255;28;20056;-63
2021/08/29 20:31:33;;;;;;;13.70;8.57;;;;;;;16.41;100.00;101886.44;10458718;28;20045;-63
2021/08/29 20:36:35;;;;;;;12.48;9.25;;;;;;;16.48;100.00;101891.22;10458549;28;20193;-63
2021/08/29 20:41:38;;;;;;;10.77;8.82;;;;;;;16.51;100.00;101893.69;10458212;28;20052;-63
2021/08/29 20:46:40;;;;;;;14.52;9.35;;;;;;;16.58;100.00;101891.47;10457606;28;20488;-64
2021/08/29 20:51:42;;;;;;;15.25;8.98;;;;;;;16.52;100.00;101882.16;10457975;28;20049;-64
2021/08/29 20:56:45;;;;;;;14.45;10.40;;;;;;;16.27;100.00;101885.56;10457466;28;20053;-62
2021/08/29 21:01:47;;;;;;;15.45;10.60;;;;;;;16.46;100.00;101890.50;10457996;28;20049;-64
2021/08/29 21:06:50;;;;;;;12.13;9.77;;;;;;;16.36;100.00;101897.31;10457394;28;20052;-63
2021/08/29 21:11:52;;;;;;;13.55;10.43;;;;;;;16.37;100.00;101899.00;10456926;28;20061;-63
2021/08/29 21:16:54;;;;;;;13.40;9.32;;;;;;;16.35;100.00;101900.91;10457222;28;20427;-63
2021/08/29 21:21:57;;;;;;;16.05;11.50;;;;;;;16.33;100.00;101898.34;10456573;28;20057;-64
2021/08/29 21:27:00;;;;;;;11.13;8.00;;;;;;;16.52;100.00;101900.69;10456641;28;20493;-63
2021/08/29 21:32:02;;;;;;;15.40;10.57;;;;;;;16.46;100.00;101898.41;10457263;28;20049;-64
2021/08/29 21:37:04;;;;;;;15.57;11.23;;;;;;;16.32;100.00;101896.69;10456539;28;20049;-64
2021/08/29 21:42:07;;;;;;;15.02;10.75;;;;;;;16.44;100.00;101902.97;10457011;28;20052;-63
2021/08/29 21:47:09;;;;;;;15.35;10.77;;;;;;;16.42;100.00;101896.91;10456641;28;20049;-64
2021/08/29 21:52:11;;;;;;;18.52;10.40;;;;;;;16.36;100.00;101902.59;10459725;28;20057;-63
2021/08/29 21:57:14;;;;;;;14.10;9.98;;;;;;;16.37;100.00;101898.16;10464935;28;20048;-65
2021/08/29 22:02:16;;;;;;;16.77;11.10;;;;;;;16.39;100.00;101907.69;10464958;28;20052;-64
2021/08/29 22:07:19;;;;;;;15.48;11.07;;;;;;;16.22;100.00;101900.81;10464279;28;20055;-64
2021/08/29 22:12:21;;;;;;;15.98;10.63;;;;;;;16.49;100.00;101907.94;10464110;28;20491;-63
2021/08/29 22:17:24;;;;;;;12.23;10.07;;;;;;;16.26;100.00;101912.91;10464254;28;20492;-64
2021/08/29 22:22:27;;;;;;;13.18;10.10;;;;;;;16.47;100.00;101918.59;10463544;28;20059;-65
2021/08/29 22:27:33;;;;;;;13.38;11.00;;;;;;;16.22;100.00;101913.19;10463618;28;20060;-63
2021/08/29 22:32:37;;;;;;;11.68;9.55;;;;;;;16.30;100.00;101911.75;10463284;28;20060;-63
2021/08/29 22:37:40;;;;;;;19.23;11.23;;;;;;;16.12;100.00;101920.84;10462950;28;20059;-63
2021/08/29 22:42:42;;;;;;;14.82;10.38;;;;;;;16.25;100.00;101910.38;10462694;28;20049;-64
2021/08/29 22:47:44;;;;;;;15.70;11.60;;;;;;;16.27;100.00;101911.09;10463586;28;20060;-64
2021/08/29 22:52:46;;;;;;;13.35;10.48;;;;;;;16.15;100.00;101915.38;10462625;28;20057;-65